Time;durP1;ratioP1;P1;durP2;ratioP2;P2;SDS_P1;SDS_P2;PMS_P1;PMS_P2;Temp;Humidity;BMP_temperature;BMP_pressure;BME280_temperature;BME280_humidity;BME280_pressure;Samples;Min_cycle;Max_cycle;Signal;HPM_P1;HPM_P2
2021/11/14 00:00:18;;;;;;;97.88;35.97;;;;;;;2.47;100.00;101194.84;5091723;28;20110;-67
2021/11/14 00:02:44;;;;;;;92.03;34.17;;;;;;;2.39;100.00;101189.13;5091688;28;20048;-69
2021/11/14 00:05:10;;;;;;;97.20;34.33;;;;;;;2.49;100.00;101208.56;5091965;28;20093;-69
2021/11/14 00:07:36;;;;;;;112.20;36.17;;;;;;;2.43;100.00;101203.00;5091785;28;20469;-67
2021/11/14 00:10:04;;;;;;;88.70;35.83;;;;;;;2.28;100.00;101187.34;5090520;28;20024;-67
2021/11/14 00:12:29;;;;;;;98.63;34.30;;;;;;;2.17;100.00;101193.19;5091824;28;20042;-69
2021/11/14 00:14:55;;;;;;;93.27;35.93;;;;;;;2.30;100.00;101210.41;5091852;28;20024;-69
2021/11/14 00:17:20;;;;;;;120.40;36.10;;;;;;;2.34;100.00;101213.31;5091349;28;20423;-66
2021/11/14 00:19:46;;;;;;;115.77;36.23;;;;;;;2.25;100.00;101184.53;5091588;28;20036;-67
2021/11/14 00:22:11;;;;;;;143.53;35.87;;;;;;;2.41;100.00;101210.50;5091671;28;20028;-67
2021/11/14 00:24:37;;;;;;;137.57;35.85;;;;;;;2.34;100.00;101180.19;5084063;28;20025;-68
2021/11/14 00:27:02;;;;;;;132.27;38.00;;;;;;;2.58;100.00;101208.47;5071531;28;20392;-70
2021/11/14 00:29:28;;;;;;;118.45;37.20;;;;;;;2.55;100.00;101198.00;5071253;28;20032;-68
2021/11/14 00:31:53;;;;;;;146.40;37.57;;;;;;;2.42;100.00;101163.88;5071323;28;20029;-70
2021/11/14 00:34:19;;;;;;;148.30;35.70;;;;;;;2.54;100.00;101183.47;5071556;28;20044;-68
2021/11/14 00:36:45;;;;;;;98.97;35.58;;;;;;;2.19;100.00;101144.16;5071232;28;20095;-69
2021/11/14 00:39:16;;;;;;;125.35;36.20;;;;;;;2.12;100.00;101144.44;5071218;28;20029;-69
2021/11/14 00:41:41;;;;;;;142.53;36.80;;;;;;;2.55;100.00;101203.09;5091236;28;20020;-72
2021/11/14 00:44:08;;;;;;;145.85;38.28;;;;;;;2.16;100.00;101131.19;5091646;28;20500;-70
2021/11/14 00:46:34;;;;;;;132.88;36.92;;;;;;;2.66;100.00;101224.38;5091155;28;20020;-69
2021/11/14 00:49:00;;;;;;;160.35;38.55;;;;;;;2.64;100.00;101216.59;5091110;28;20109;-70
2021/11/14 00:51:29;;;;;;;120.40;36.15;;;;;;;2.48;100.00;101211.91;5091602;28;20028;-68
2021/11/14 00:53:56;;;;;;;136.90;35.83;;;;;;;2.45;100.00;101205.69;5091353;28;20020;-68
2021/11/14 00:56:22;;;;;;;118.93;37.33;;;;;;;2.10;100.00;101166.34;5091073;28;20036;-69
2021/11/14 00:58:48;;;;;;;196.95;38.03;;;;;;;2.25;100.00;101184.53;5091333;28;20562;-72
2021/11/14 01:01:13;;;;;;;141.32;37.88;;;;;;;2.35;100.00;101215.09;5091144;28;20032;-69
2021/11/14 01:03:39;;;;;;;157.55;36.47;;;;;;;2.45;100.00;101200.56;5092662;28;20490;-69
2021/11/14 01:06:04;;;;;;;98.00;36.20;;;;;;;2.43;100.00;101210.66;5095282;28;20050;-70
2021/11/14 01:08:30;;;;;;;174.37;38.33;;;;;;;2.24;100.00;101175.13;5095477;28;20496;-69
2021/11/14 01:10:57;;;;;;;134.17;37.90;;;;;;;2.49;100.00;101200.06;5094991;28;20028;-69
2021/11/14 01:13:23;;;;;;;103.03;35.95;;;;;;;2.39;100.00;101175.47;5095044;28;20031;-70
2021/11/14 01:15:51;;;;;;;99.03;36.00;;;;;;;2.50;100.00;101189.09;5094763;28;20474;-68
2021/11/14 01:18:18;;;;;;;84.32;35.33;;;;;;;2.37;100.00;101193.19;5094911;28;20032;-70
2021/11/14 01:20:46;;;;;;;102.53;36.43;;;;;;;2.33;100.00;101195.34;5094720;28;20111;-69
2021/11/14 01:23:13;;;;;;;89.37;35.20;;;;;;;2.23;100.00;101196.25;5094919;28;20035;-71
2021/11/14 01:25:40;;;;;;;108.47;37.30;;;;;;;2.19;100.00;101176.41;5094841;28;20478;-70
2021/11/14 01:28:06;;;;;;;124.43;36.23;;;;;;;2.18;100.00;101180.63;5094366;28;20028;-69
2021/11/14 01:30:37;;;;;;;101.10;35.00;;;;;;;1.83;100.00;101104.72;5094319;28;20032;-69
2021/11/14 01:33:05;;;;;;;97.37;32.87;;;;;;;2.32;100.00;101185.91;5093934;28;20020;-71
2021/11/14 01:35:31;;;;;;;77.00;32.27;;;;;;;2.28;100.00;101178.81;5092315;28;20032;-69
2021/11/14 01:37:57;;;;;;;81.10;33.60;;;;;;;2.13;100.00;101178.44;5094426;28;20035;-68
2021/11/14 01:40:29;;;;;;;97.57;35.50;;;;;;;2.21;100.00;101187.63;5094195;28;20028;-69
2021/11/14 01:42:56;;;;;;;116.33;35.47;;;;;;;2.31;100.00;101185.03;5094162;28;20030;-67
2021/11/14 01:45:23;;;;;;;108.73;33.33;;;;;;;2.22;100.00;101171.56;5092741;28;20379;-68
2021/11/14 01:47:48;;;;;;;88.07;34.00;;;;;;;1.90;100.00;101107.03;5093969;28;20038;-72
2021/11/14 01:50:17;;;;;;;95.40;33.83;;;;;;;2.43;100.00;101190.25;5094231;28;20102;-70
2021/11/14 01:52:45;;;;;;;88.35;32.67;;;;;;;2.41;100.00;101185.03;5076238;28;20070;-70
2021/11/14 01:55:15;;;;;;;110.03;35.10;;;;;;;2.30;100.00;101183.25;5094017;28;20039;-69
2021/11/14 01:57:40;;;;;;;86.88;30.88;;;;;;;1.73;100.00;101090.38;5093834;28;20024;-71
2021/11/14 02:00:16;;;;;;;85.30;32.83;;;;;;;2.33;100.00;101185.16;5093815;28;20379;-70
2021/11/14 02:02:42;;;;;;;95.17;33.63;;;;;;;2.41;100.00;101190.13;5093910;28;20048;-70
2021/11/14 02:05:09;;;;;;;86.83;33.47;;;;;;;2.31;100.00;101171.44;5093749;28;20039;-69
2021/11/14 02:07:35;;;;;;;94.37;31.43;;;;;;;2.28;100.00;101174.63;5093986;28;20151;-69
2021/11/14 02:10:00;;;;;;;71.83;31.40;;;;;;;2.01;100.00;101145.22;5093247;28;20539;-73
2021/11/14 02:12:26;;;;;;;71.30;31.40;;;;;;;2.31;100.00;101192.69;5093421;28;20043;-71
2021/11/14 02:14:51;;;;;;;63.83;31.90;;;;;;;2.23;100.00;101179.34;5092553;28;20028;-69
2021/11/14 02:17:17;;;;;;;83.60;31.37;;;;;;;2.26;100.00;101178.69;5093451;28;20066;-68
2021/11/14 02:19:49;;;;;;;64.70;30.37;;;;;;;2.28;100.00;101181.34;5057897;28;20036;-70
2021/11/14 02:22:15;;;;;;;76.10;31.20;;;;;;;2.19;100.00;101179.81;5093549;28;20027;-69
2021/11/14 02:24:41;;;;;;;74.63;31.00;;;;;;;2.18;100.00;101184.81;5093181;28;20028;-69
2021/11/14 02:27:06;;;;;;;93.77;33.37;;;;;;;2.16;100.00;101182.13;5093435;28;20477;-66
2021/11/14 02:29:32;;;;;;;90.47;30.53;;;;;;;2.06;100.00;101159.22;5093505;28;20032;-68
2021/11/14 02:31:57;;;;;;;90.83;32.93;;;;;;;1.51;100.00;101099.53;5093207;28;20528;-69
2021/11/14 02:34:23;;;;;;;95.37;32.03;;;;;;;1.86;100.00;101160.13;5093563;28;20028;-67
2021/11/14 02:36:49;;;;;;;117.17;32.37;;;;;;;1.98;100.00;101186.63;5075281;28;20466;-69
2021/11/14 02:39:15;;;;;;;87.80;32.33;;;;;;;1.94;100.00;101194.75;5093467;28;20032;-69
2021/11/14 02:41:41;;;;;;;58.33;26.67;;;;;;;1.81;100.00;101181.75;5093459;28;20024;-70
2021/11/14 02:44:06;;;;;;;102.00;31.47;;;;;;;1.64;100.00;101178.69;5057224;28;20044;-67
2021/11/14 02:46:32;;;;;;;93.43;30.40;;;;;;;1.72;100.00;101192.97;5092945;28;20094;-69
2021/11/14 02:48:57;;;;;;;95.53;31.53;;;;;;;1.52;100.00;101147.13;5092963;28;20451;-75
2021/11/14 02:51:27;;;;;;;92.80;33.33;;;;;;;1.72;100.00;101185.31;5092944;28;20382;-71
2021/11/14 02:53:53;;;;;;;;;;;;;;;1.72;100.00;101192.06;5093528;28;20028;-69
2021/11/14 02:56:19;;;;;;;90.90;32.43;;;;;;;1.67;100.00;101188.22;5092502;28;19919;-73
2021/11/14 02:58:44;;;;;;;93.57;31.33;;;;;;;1.57;100.00;101186.56;5092739;28;20065;-70
2021/11/14 03:01:35;;;;;;;77.27;32.27;;;;;;;1.21;100.00;101114.00;5093000;28;20024;-69
2021/11/14 03:04:01;;;;;;;79.33;29.60;;;;;;;1.61;100.00;101192.06;5010531;28;20124;-67
2021/11/14 03:06:31;;;;;;;83.40;32.37;;;;;;;1.66;100.00;101194.09;5010546;28;20049;-69
2021/11/14 03:08:57;;;;;;;112.10;31.98;;;;;;;1.37;100.00;101136.53;4994143;28;20042;-73
2021/11/14 03:11:22;;;;;;;113.57;33.43;;;;;;;1.69;100.00;101171.44;5010705;28;20504;-66
2021/11/14 03:13:48;;;;;;;106.10;31.17;;;;;;;1.61;100.00;101176.78;5010496;28;20519;-68
2021/11/14 03:16:17;;;;;;;104.40;30.67;;;;;;;1.47;100.00;101151.84;5010592;28;20041;-71
2021/11/14 03:18:43;;;;;;;105.88;30.35;;;;;;;1.65;100.00;101161.78;5010261;28;20025;-72
2021/11/14 03:21:09;;;;;;;98.50;32.23;;;;;;;1.89;100.00;101188.38;5010284;28;20514;-68
2021/11/14 03:23:35;;;;;;;113.63;31.97;;;;;;;1.51;100.00;101104.63;5010354;28;20470;-69
2021/11/14 03:26:01;;;;;;;93.80;30.40;;;;;;;2.05;100.00;101180.38;5009950;28;20030;-67
2021/11/14 03:28:28;;;;;;;91.73;30.37;;;;;;;2.12;100.00;101182.66;5010171;28;20042;-68
2021/11/14 03:30:55;;;;;;;80.07;28.90;;;;;;;2.15;100.00;101197.31;5010325;28;20030;-67
2021/11/14 03:33:22;;;;;;;69.50;30.63;;;;;;;2.04;100.00;101164.16;5009888;28;20065;-69
2021/11/14 03:35:57;;;;;;;64.83;29.63;;;;;;;1.11;100.00;101003.88;4993559;28;20034;-70
2021/11/14 03:38:32;;;;;;;67.03;30.37;;;;;;;1.53;100.00;101075.97;5009975;28;20056;-73
2021/11/14 03:40:59;;;;;;;63.60;30.57;;;;;;;2.19;100.00;101182.38;5039877;28;20063;-69
2021/11/14 03:43:25;;;;;;;75.63;30.17;;;;;;;2.28;100.00;101177.16;5071882;28;20096;-72
2021/11/14 03:45:50;;;;;;;78.20;27.27;;;;;;;1.68;100.00;101073.81;5071726;28;20036;-66
2021/11/14 03:48:16;;;;;;;62.47;29.07;;;;;;;1.70;100.00;101082.47;5071709;28;20021;-65
2021/11/14 03:50:42;;;;;;;66.30;29.13;;;;;;;2.35;100.00;101179.44;5071933;28;20020;-68
2021/11/14 03:53:09;;;;;;;78.43;29.57;;;;;;;2.42;100.00;101180.84;5071351;28;20115;-67
2021/11/14 03:55:35;;;;;;;63.63;27.17;;;;;;;2.37;100.00;101180.44;5071727;28;20503;-68
2021/11/14 03:58:01;;;;;;;69.07;28.53;;;;;;;2.39;100.00;101180.56;5051819;28;20025;-68
2021/11/14 04:00:31;;;;;;;55.90;26.97;;;;;;;2.38;100.00;101174.59;5051760;28;20081;-70
2021/11/14 04:02:58;;;;;;;65.55;25.73;;;;;;;2.30;100.00;101173.06;5064655;28;20044;-69
2021/11/14 04:05:28;;;;;;;62.37;26.50;;;;;;;2.22;100.00;101189.41;5091602;28;20164;-66
2021/11/14 04:07:53;;;;;;;65.35;28.77;;;;;;;2.22;100.00;101175.00;5091503;28;20031;-67
2021/11/14 04:10:19;;;;;;;57.70;27.47;;;;;;;2.25;100.00;101179.44;5091424;28;20036;-66
2021/11/14 04:12:45;;;;;;;60.92;28.33;;;;;;;2.31;100.00;101179.94;5091390;28;20409;-70
2021/11/14 04:15:13;;;;;;;75.00;25.93;;;;;;;2.10;100.00;101141.75;5090416;28;20024;-67
2021/11/14 04:17:40;;;;;;;55.03;26.37;;;;;;;2.00;100.00;101105.25;5071162;28;20032;-69
2021/11/14 04:20:09;;;;;;;58.00;25.73;;;;;;;2.24;100.00;101193.84;5071481;28;20117;-66
2021/11/14 04:22:35;;;;;;;46.15;26.17;;;;;;;1.73;100.00;101074.19;5071549;28;20025;-67
2021/11/14 04:25:00;;;;;;;54.58;27.13;;;;;;;2.34;100.00;101166.56;5036869;28;20025;-65
2021/11/14 04:27:26;;;;;;;54.85;27.23;;;;;;;2.51;100.00;101194.31;5071116;28;20154;-69
2021/11/14 04:29:52;;;;;;;60.05;26.60;;;;;;;2.44;100.00;101166.53;5071175;28;20086;-69
2021/11/14 04:32:18;;;;;;;91.35;25.35;;;;;;;2.49;100.00;101182.22;5071606;28;20071;-69
2021/11/14 04:34:43;;;;;;;55.72;25.17;;;;;;;2.45;100.00;101190.38;5071771;28;20032;-69
2021/11/14 04:37:09;;;;;;;85.67;24.30;;;;;;;2.34;100.00;101181.84;5070917;28;20024;-68
2021/11/14 04:39:35;;;;;;;61.97;27.20;;;;;;;2.35;100.00;101186.19;5073863;28;20020;-67
2021/11/14 04:42:03;;;;;;;72.25;24.55;;;;;;;2.28;100.00;101174.63;5074711;28;20025;-64
2021/11/14 04:44:29;;;;;;;80.53;26.30;;;;;;;2.50;100.00;101184.00;5075453;28;20501;-65
2021/11/14 04:46:55;;;;;;;70.53;23.83;;;;;;;2.44;100.00;101174.19;5039536;28;20043;-65
2021/11/14 04:49:21;;;;;;;188.05;26.02;;;;;;;2.53;100.00;101174.03;5075105;28;20028;-67
2021/11/14 04:51:50;;;;;;;96.55;23.92;;;;;;;2.36;100.00;101160.81;5075199;28;20504;-66
2021/11/14 04:54:17;;;;;;;132.00;23.60;;;;;;;2.55;100.00;101178.47;5075222;28;20446;-66
2021/11/14 04:56:44;;;;;;;110.68;24.02;;;;;;;2.60;100.00;101173.75;5083890;28;20481;-68
2021/11/14 04:59:10;;;;;;;118.90;24.02;;;;;;;2.54;100.00;101155.44;5094931;28;20405;-68
2021/11/14 05:01:36;;;;;;;148.40;24.80;;;;;;;2.49;100.00;101154.16;5095375;28;20036;-68
2021/11/14 05:04:02;;;;;;;118.50;23.88;;;;;;;2.42;100.00;101178.28;5094722;28;20048;-67
2021/11/14 05:06:27;;;;;;;184.93;25.27;;;;;;;2.34;100.00;101177.63;5095020;28;20028;-69
2021/11/14 05:08:53;;;;;;;95.65;23.80;;;;;;;2.22;100.00;101172.44;5093542;28;20027;-67
2021/11/14 05:11:18;;;;;;;122.18;25.33;;;;;;;2.42;100.00;101189.34;5095232;28;20032;-65
2021/11/14 05:13:44;;;;;;;117.40;24.67;;;;;;;2.39;100.00;101186.56;5094912;28;20397;-67
2021/11/14 05:16:10;;;;;;;149.00;27.10;;;;;;;2.32;100.00;101189.38;5094998;28;20111;-65
2021/11/14 05:18:35;;;;;;;179.20;30.70;;;;;;;2.31;100.00;101176.53;5094867;28;20028;-70
2021/11/14 05:21:01;;;;;;;168.90;48.10;;;;;;;2.43;100.00;101193.69;5094824;28;20466;-69
2021/11/14 05:23:27;;;;;;;158.65;41.08;;;;;;;2.19;100.00;101167.09;5094773;28;20533;-69
2021/11/14 05:25:52;;;;;;;141.87;31.50;;;;;;;1.85;100.00;101118.50;5094353;28;20058;-69
2021/11/14 05:28:18;;;;;;;81.57;29.10;;;;;;;2.19;100.00;101172.19;5094572;28;20036;-66
2021/11/14 05:30:44;;;;;;;113.28;27.45;;;;;;;2.40;100.00;101197.66;5052112;28;20048;-67
2021/11/14 05:33:10;;;;;;;106.17;25.80;;;;;;;2.43;100.00;101203.00;5074504;28;20021;-66
2021/11/14 05:35:35;;;;;;;52.77;24.40;;;;;;;2.43;100.00;101203.88;5055507;28;20047;-66
2021/11/14 05:38:01;;;;;;;61.17;24.10;;;;;;;2.02;100.00;101135.16;5074008;28;20390;-65
2021/11/14 05:40:27;;;;;;;63.00;24.73;;;;;;;2.41;100.00;101200.31;5073823;28;20100;-70
2021/11/14 05:42:52;;;;;;;84.07;25.90;;;;;;;2.13;100.00;101151.34;5074076;28;20028;-68
2021/11/14 05:45:18;;;;;;;49.67;26.08;;;;;;;2.55;100.00;101213.28;5078500;28;20801;-71
2021/11/14 05:47:43;;;;;;;51.20;26.10;;;;;;;2.62;100.00;101215.56;5093574;28;20020;-69
2021/11/14 05:50:10;;;;;;;43.75;26.70;;;;;;;2.65;100.00;101220.03;5092712;28;20064;-67
2021/11/14 05:52:36;;;;;;;44.22;24.65;;;;;;;2.43;100.00;101183.50;5094086;28;20028;-69
2021/11/14 05:55:04;;;;;;;38.33;22.27;;;;;;;2.65;100.00;101225.13;5093850;28;20024;-68
2021/11/14 05:57:40;;;;;;;38.03;22.42;;;;;;;2.57;100.00;101227.06;5093986;28;20028;-69
2021/11/14 06:00:09;;;;;;;35.33;21.48;;;;;;;2.54;100.00;101230.25;5074923;28;20028;-70
2021/11/14 06:02:48;;;;;;;35.95;22.35;;;;;;;2.56;100.00;101228.69;5094256;28;20052;-68
2021/11/14 06:05:17;;;;;;;37.17;23.40;;;;;;;2.42;100.00;101206.31;5093848;28;20443;-67
2021/11/14 06:07:44;;;;;;;38.42;23.33;;;;;;;2.43;100.00;101246.34;5094010;28;20035;-73
2021/11/14 06:10:11;;;;;;;39.58;21.90;;;;;;;2.46;100.00;101232.94;5092579;28;20032;-69
2021/11/14 06:12:40;;;;;;;42.42;23.75;;;;;;;2.50;100.00;101240.06;5092965;28;20016;-71
2021/11/14 06:15:09;;;;;;;38.22;24.00;;;;;;;2.64;100.00;101244.66;5082397;28;20025;-71
2021/11/14 06:17:36;;;;;;;44.10;25.23;;;;;;;2.67;100.00;101228.72;5073240;28;20036;-69
2021/11/14 06:20:03;;;;;;;45.42;26.23;;;;;;;2.28;100.00;101148.22;5073528;28;20468;-70
2021/11/14 06:22:29;;;;;;;52.97;28.92;;;;;;;2.26;100.00;101154.09;5073508;28;20029;-70
2021/11/14 06:24:55;;;;;;;51.13;29.80;;;;;;;2.84;100.00;101253.91;5073459;28;20032;-69
2021/11/14 06:27:20;;;;;;;51.10;28.85;;;;;;;1.96;100.00;101138.84;5093396;28;20032;-70
2021/11/14 06:29:46;;;;;;;56.40;32.30;;;;;;;2.50;100.00;101235.84;5093453;28;20468;-70
2021/11/14 06:32:11;;;;;;;54.88;32.10;;;;;;;2.52;100.00;101243.66;5093488;28;20035;-70
2021/11/14 06:34:37;;;;;;;65.80;36.97;;;;;;;2.56;100.00;101258.41;5093330;28;20115;-70
2021/11/14 06:37:03;;;;;;;61.70;34.83;;;;;;;2.51;100.00;101259.69;5087214;28;20490;-72
2021/11/14 06:39:29;;;;;;;56.13;33.20;;;;;;;2.45;100.00;101256.66;5063818;28;20078;-72
2021/11/14 06:41:54;;;;;;;53.67;30.00;;;;;;;2.30;100.00;101236.75;5073384;28;20480;-69
2021/11/14 06:44:40;;;;;;;57.47;30.50;;;;;;;2.43;100.00;101253.97;5070483;28;20047;-69
2021/11/14 06:47:05;;;;;;;59.63;30.52;;;;;;;2.36;100.00;101244.03;5070453;28;20040;-72
2021/11/14 06:49:31;;;;;;;61.28;30.75;;;;;;;2.43;100.00;101234.47;5052218;28;20052;-68
2021/11/14 06:51:56;;;;;;;61.58;33.10;;;;;;;2.70;100.00;101249.34;5070610;28;20032;-71
2021/11/14 06:54:22;;;;;;;61.15;33.65;;;;;;;2.74;100.00;101223.31;5070301;28;20063;-69
2021/11/14 06:56:48;;;;;;;59.38;32.50;;;;;;;2.43;100.00;101141.84;5083180;28;20056;-69
2021/11/14 06:59:13;;;;;;;68.93;36.63;;;;;;;3.16;100.00;101249.59;5075248;28;20062;-70
2021/11/14 07:01:39;;;;;;;65.03;38.97;;;;;;;3.21;100.00;101244.06;5052448;28;20041;-67
2021/11/14 07:04:04;;;;;;;61.20;34.60;;;;;;;3.42;100.00;101238.00;5070137;28;20519;-70
2021/11/14 07:06:30;;;;;;;64.25;37.58;;;;;;;3.50;100.00;101219.03;5070165;28;20071;-69
2021/11/14 07:08:55;;;;;;;60.78;34.33;;;;;;;3.68;100.00;101228.13;5070087;28;20028;-67
2021/11/14 07:11:21;;;;;;;80.53;45.42;;;;;;;3.63;100.00;101238.78;5070298;28;20036;-67
2021/11/14 07:13:47;;;;;;;62.28;36.88;;;;;;;3.85;100.00;101243.84;5070005;28;20029;-67
2021/11/14 07:16:13;;;;;;;57.67;34.47;;;;;;;4.03;100.00;101241.81;5084850;28;20089;-75
2021/11/14 07:18:39;;;;;;;57.58;34.00;;;;;;;4.08;100.00;101224.28;5092156;28;20046;-69
2021/11/14 07:21:05;;;;;;;55.95;34.13;;;;;;;4.18;100.00;101203.72;5090434;28;20099;-66
2021/11/14 07:23:30;;;;;;;60.47;35.00;;;;;;;4.38;100.00;101215.44;5092149;28;20032;-71
2021/11/14 07:25:55;;;;;;;55.65;34.28;;;;;;;4.55;100.00;101221.78;5073847;28;20528;-69
2021/11/14 07:28:21;;;;;;;58.03;35.05;;;;;;;4.40;100.00;101205.31;5069465;28;20475;-68
2021/11/14 07:30:46;;;;;;;61.60;35.97;;;;;;;4.56;100.00;101244.03;5069107;28;20044;-66
2021/11/14 07:33:12;;;;;;;57.58;34.75;;;;;;;4.66;100.00;101237.91;5069598;28;20036;-73
2021/11/14 07:35:38;;;;;;;59.67;35.20;;;;;;;4.24;100.00;101149.59;5069327;28;20048;-65
2021/11/14 07:38:04;;;;;;;55.55;34.22;;;;;;;4.88;100.00;101231.81;5069374;28;20033;-66
2021/11/14 07:40:30;;;;;;;55.50;34.75;;;;;;;4.69;100.00;101169.97;5069322;28;20091;-68
2021/11/14 07:42:55;;;;;;;54.70;34.33;;;;;;;4.56;100.00;101167.31;5069204;28;20521;-67
2021/11/14 07:45:25;;;;;;;54.03;33.15;;;;;;;5.06;100.00;101230.56;5068807;28;20548;-68
2021/11/14 07:47:52;;;;;;;60.60;38.28;;;;;;;5.23;100.00;101236.00;5069291;28;20050;-69
2021/11/14 07:50:20;;;;;;;61.00;36.88;;;;;;;5.22;100.00;101214.63;5068974;28;20041;-70
2021/11/14 07:52:46;;;;;;;54.75;32.90;;;;;;;5.30;100.00;101236.53;5078562;28;20118;-70
2021/11/14 07:55:12;;;;;;;61.55;35.72;;;;;;;5.24;100.00;101238.66;5089347;28;20100;-74
2021/11/14 07:57:43;;;;;;;58.40;36.63;;;;;;;5.37;100.00;101231.84;5090869;28;20044;-70
2021/11/14 08:00:11;;;;;;;63.47;39.58;;;;;;;4.66;100.00;101115.13;5091283;28;20497;-67
2021/11/14 08:02:37;;;;;;;59.43;36.77;;;;;;;5.21;100.00;101217.97;5098534;28;20040;-68
2021/11/14 08:05:03;;;;;;;60.17;35.03;;;;;;;5.28;100.00;101244.88;5111873;28;20038;-68
2021/11/14 08:07:28;;;;;;;64.20;38.05;;;;;;;4.94;100.00;101179.38;5112075;28;20397;-70
2021/11/14 08:09:54;;;;;;;62.00;37.55;;;;;;;5.19;100.00;101229.75;5111682;28;20067;-68
2021/11/14 08:12:19;;;;;;;62.42;36.38;;;;;;;5.46;100.00;101245.31;5111419;28;20031;-73
2021/11/14 08:14:44;;;;;;;62.30;37.45;;;;;;;5.54;100.00;101258.63;5075674;28;20035;-67
2021/11/14 08:17:10;;;;;;;60.67;36.53;;;;;;;5.53;100.00;101252.59;5111705;28;20028;-69
2021/11/14 08:19:58;;;;;;;60.67;37.17;;;;;;;5.63;100.00;101265.31;5111644;28;20028;-69
2021/11/14 08:22:24;;;;;;;63.65;37.13;;;;;;;5.76;100.00;101259.34;5048773;28;20037;-70
2021/11/14 08:24:49;;;;;;;62.75;38.20;;;;;;;5.86;100.00;101257.41;5031798;28;20414;-70
2021/11/14 08:27:15;;;;;;;58.78;36.33;;;;;;;5.56;100.00;101196.50;5048802;28;20037;-69
2021/11/14 08:29:40;;;;;;;66.32;39.20;;;;;;;5.97;100.00;101249.69;5008729;28;20048;-70
2021/11/14 08:32:06;;;;;;;61.10;38.50;;;;;;;5.94;100.00;101234.09;5008897;28;20201;-74
2021/11/14 08:34:32;;;;;;;67.50;39.80;;;;;;;6.19;100.00;101253.72;5009347;28;20436;-70
2021/11/14 08:36:57;;;;;;;68.28;41.45;;;;;;;5.67;100.00;101152.00;5009132;28;20081;-71
2021/11/14 08:39:23;;;;;;;58.70;37.72;;;;;;;6.34;100.00;101247.84;5008803;28;20400;-70
2021/11/14 08:41:49;;;;;;;66.70;41.42;;;;;;;6.36;100.00;101230.88;4998514;28;20496;-69
2021/11/14 08:44:14;;;;;;;60.65;37.70;;;;;;;6.43;100.00;101238.19;4986806;28;20069;-70
2021/11/14 08:46:40;;;;;;;64.63;39.13;;;;;;;6.54;100.00;101239.81;4989533;28;20038;-71
2021/11/14 08:49:05;;;;;;;75.28;44.45;;;;;;;6.50;100.00;101235.22;4987412;28;20105;-71
2021/11/14 08:51:31;;;;;;;70.22;43.55;;;;;;;6.46;100.00;101203.34;4989665;28;20037;-68
2021/11/14 08:54:00;;;;;;;80.93;58.17;;;;;;;6.43;100.00;101189.44;5034023;28;20041;-69
2021/11/14 08:56:32;;;;;;;68.40;44.00;;;;;;;6.68;100.00;101217.59;5048700;28;20029;-68
2021/11/14 08:58:58;;;;;;;89.20;63.20;;;;;;;6.72;100.00;101228.97;5048660;28;20032;-69
2021/11/14 09:01:24;;;;;;;79.30;52.55;;;;;;;6.76;100.00;101220.66;5048748;28;20049;-70
2021/11/14 09:03:49;;;;;;;76.60;46.03;;;;;;;6.30;100.00;101145.03;5031834;28;20045;-67
2021/11/14 09:06:15;;;;;;;67.55;43.13;;;;;;;6.86;100.00;101220.44;5035029;28;20044;-69
2021/11/14 09:08:41;;;;;;;66.00;41.92;;;;;;;6.89;100.00;101230.03;5070545;28;20029;-69
2021/11/14 09:11:06;;;;;;;66.68;43.08;;;;;;;6.87;100.00;101222.22;5071156;28;20493;-69
2021/11/14 09:13:32;;;;;;;76.70;43.92;;;;;;;6.53;100.00;101152.44;5070910;28;20029;-69
2021/11/14 09:16:00;;;;;;;70.25;43.38;;;;;;;6.96;100.00;101215.09;5070677;28;20034;-69
2021/11/14 09:18:27;;;;;;;71.70;43.05;;;;;;;6.99;100.00;101206.72;5070908;28;20025;-70
2021/11/14 09:20:53;;;;;;;71.07;43.97;;;;;;;7.12;100.00;101201.56;5070745;28;20028;-69
2021/11/14 09:23:19;;;;;;;66.28;39.75;;;;;;;6.63;100.00;101119.78;5070631;28;20028;-68
2021/11/14 09:25:46;;;;;;;70.75;42.63;;;;;;;7.23;100.00;101202.22;5073485;28;20062;-69
2021/11/14 09:28:13;;;;;;;62.30;39.17;;;;;;;6.94;100.00;101137.13;5074163;28;20033;-68
2021/11/14 09:30:42;;;;;;;65.70;39.58;;;;;;;7.32;100.00;101198.47;5071435;28;20033;-69
2021/11/14 09:33:09;;;;;;;61.67;39.35;;;;;;;7.12;100.00;101162.16;5074045;28;20032;-70
2021/11/14 09:35:35;;;;;;;62.20;40.45;;;;;;;7.26;100.00;101176.75;5070541;28;20112;-71
2021/11/14 09:38:01;;;;;;;61.80;39.35;;;;;;;7.35;100.00;101183.22;5071194;28;20060;-70
2021/11/14 09:40:26;;;;;;;56.05;36.67;;;;;;;7.34;100.00;101174.66;5073353;28;20545;-70
2021/11/14 09:42:52;;;;;;;55.63;36.13;;;;;;;7.54;100.00;101186.13;5056821;28;20109;-70
2021/11/14 09:45:17;;;;;;;59.88;37.35;;;;;;;7.59;100.00;101181.28;5054370;28;20057;-70
2021/11/14 09:47:43;;;;;;;71.53;41.60;;;;;;;7.59;100.00;101165.88;5054019;28;20491;-70
2021/11/14 09:50:10;;;;;;;63.22;39.65;;;;;;;7.65;100.00;101175.63;5053807;28;20025;-71
2021/11/14 09:52:38;;;;;;;64.22;40.03;;;;;;;7.71;100.00;101165.72;5053813;28;20158;-70
2021/11/14 09:55:06;;;;;;;62.30;39.65;;;;;;;7.81;100.00;101170.59;5053923;28;20044;-70
2021/11/14 09:57:32;;;;;;;59.38;38.55;;;;;;;7.59;100.00;101117.06;5053408;28;20509;-70
2021/11/14 09:59:57;;;;;;;63.42;40.72;;;;;;;7.85;100.00;101152.00;5053800;28;20021;-70
2021/11/14 10:02:23;;;;;;;59.38;39.25;;;;;;;7.91;100.00;101162.66;5058560;28;20041;-70
2021/11/14 10:04:48;;;;;;;60.13;39.17;;;;;;;8.02;100.00;101162.38;5073685;28;20056;-70
2021/11/14 10:07:17;;;;;;;58.95;38.35;;;;;;;8.14;100.00;101167.34;5073850;28;20060;-70
2021/11/14 10:09:53;;;;;;;54.63;36.33;;;;;;;7.32;100.00;101023.81;5073687;28;20127;-70
2021/11/14 10:12:28;;;;;;;53.00;35.80;;;;;;;7.97;100.00;101164.66;5073635;28;20032;-70
2021/11/14 10:15:12;;;;;;;54.22;34.80;;;;;;;7.59;100.00;101110.22;5073465;28;20032;-69
2021/11/14 10:17:45;;;;;;;50.25;33.33;;;;;;;7.87;100.00;101172.66;5073367;28;20043;-69
2021/11/14 10:20:19;;;;;;;55.58;33.10;;;;;;;7.84;100.00;101169.88;5073770;28;20398;-71
2021/11/14 10:22:47;;;;;;;50.17;32.50;;;;;;;7.88;100.00;101161.56;5073409;28;20040;-70
2021/11/14 10:25:14;;;;;;;45.03;30.70;;;;;;;7.88;100.00;101159.00;5073508;28;20029;-70
2021/11/14 10:27:41;;;;;;;43.92;30.00;;;;;;;7.41;100.00;101068.91;5086108;28;20024;-70
2021/11/14 10:30:10;;;;;;;49.10;32.22;;;;;;;7.59;100.00;101097.38;5093603;28;20036;-70
2021/11/14 10:32:36;;;;;;;46.45;30.75;;;;;;;7.88;100.00;101141.88;5075737;28;20447;-70
2021/11/14 10:35:05;;;;;;;43.88;28.90;;;;;;;7.40;100.00;101071.38;5093475;28;20032;-70
2021/11/14 10:37:33;;;;;;;49.92;33.28;;;;;;;7.85;100.00;101135.66;5090674;28;20401;-70
2021/11/14 10:40:01;;;;;;;47.92;32.35;;;;;;;7.96;100.00;101139.75;5092866;28;20500;-70
2021/11/14 10:42:29;;;;;;;43.92;29.65;;;;;;;7.90;100.00;101141.97;5092801;28;20039;-70
2021/11/14 10:44:58;;;;;;;47.90;32.28;;;;;;;7.94;100.00;101149.94;5093420;28;20374;-70
2021/11/14 10:47:25;;;;;;;53.92;36.53;;;;;;;7.63;100.00;101084.69;5093175;28;20028;-70
2021/11/14 10:50:11;;;;;;;45.80;31.30;;;;;;;8.11;100.00;101142.31;5093002;28;20107;-70
2021/11/14 10:52:48;;;;;;;43.45;28.80;;;;;;;8.09;100.00;101137.09;5074937;28;20137;-70
2021/11/14 10:55:13;;;;;;;47.10;31.27;;;;;;;8.10;100.00;101141.44;5072196;28;20028;-70
2021/11/14 10:57:39;;;;;;;49.60;31.35;;;;;;;8.18;100.00;101125.56;5056291;28;20478;-72
2021/11/14 11:00:08;;;;;;;46.28;28.20;;;;;;;8.16;100.00;101114.31;5082833;28;20032;-72
2021/11/14 11:02:33;;;;;;;41.97;28.58;;;;;;;8.41;100.00;101129.44;5081057;28;20503;-72
2021/11/14 11:05:12;;;;;;;39.55;27.92;;;;;;;8.45;100.00;101131.41;5090294;28;20030;-71